createdAt,value
2023-05-16T00:00:11.505Z,801.00
2023-05-16T00:01:11.549Z,799.00
2023-05-16T00:02:12.639Z,803.00
2023-05-16T00:03:12.802Z,802.00
2023-05-16T00:04:11.877Z,805.00
2023-05-16T00:05:11.770Z,800.00
2023-05-16T00:06:12.978Z,788.00
2023-05-16T00:07:11.891Z,794.00
2023-05-16T00:08:13.048Z,811.00
2023-05-16T00:09:12.009Z,793.00
2023-05-16T00:10:13.082Z,804.00
2023-05-16T00:11:13.150Z,796.00
2023-05-16T00:12:12.212Z,790.00
2023-05-16T00:13:13.276Z,802.00
2023-05-16T00:14:12.334Z,795.00
2023-05-16T00:15:12.400Z,796.00
2023-05-16T00:16:13.485Z,798.00
2023-05-16T00:17:13.588Z,797.00
2023-05-16T00:18:13.567Z,785.00
2023-05-16T00:19:12.678Z,783.00
2023-05-16T00:20:13.689Z,793.00
2023-05-16T00:21:13.746Z,799.00
2023-05-16T00:22:13.813Z,803.00
2023-05-16T00:23:12.868Z,780.00
2023-05-16T00:24:13.924Z,796.00
2023-05-16T00:25:12.958Z,791.00
2023-05-16T00:26:13.999Z,796.00
2023-05-16T00:27:13.066Z,783.00
2023-05-16T00:28:13.106Z,788.00
2023-05-16T00:29:14.169Z,787.00
2023-05-16T00:30:13.214Z,791.00
2023-05-16T00:31:13.285Z,803.00
2023-05-16T00:32:13.488Z,788.00
2023-05-16T00:33:13.447Z,777.00
2023-05-16T00:34:13.505Z,786.00
2023-05-16T00:35:13.525Z,802.00
2023-05-16T00:36:14.577Z,783.00
2023-05-16T00:37:13.632Z,792.00
2023-05-16T00:38:13.749Z,793.00
2023-05-16T00:39:13.749Z,790.00
2023-05-16T00:40:13.842Z,774.00
2023-05-16T00:41:13.932Z,794.00
2023-05-16T00:42:13.944Z,785.00
2023-05-16T00:43:14.998Z,784.00
2023-05-16T00:44:15.064Z,792.00
2023-05-16T00:45:14.106Z,778.00
2023-05-16T00:46:15.204Z,781.00
2023-05-16T00:47:15.239Z,777.00
2023-05-16T00:48:15.399Z,784.00
2023-05-16T00:49:15.356Z,783.00
2023-05-16T00:50:15.435Z,773.00
2023-05-16T00:51:15.462Z,782.00
2023-05-16T00:52:15.543Z,785.00
2023-05-16T00:53:14.590Z,768.00
2023-05-16T00:54:14.798Z,784.00
2023-05-16T00:55:15.712Z,781.00
2023-05-16T00:56:14.771Z,765.00
2023-05-16T00:57:15.853Z,772.00
2023-05-16T00:58:14.884Z,768.00
2023-05-16T00:59:14.926Z,773.00
2023-05-16T01:00:15.987Z,769.00
2023-05-16T01:01:16.070Z,778.00
2023-05-16T01:02:16.132Z,765.00
2023-05-16T01:03:16.288Z,774.00
2023-05-16T01:04:15.228Z,767.00
2023-05-16T01:05:16.276Z,773.00
2023-05-16T01:06:15.345Z,766.00
2023-05-16T01:07:16.401Z,764.00
2023-05-16T01:08:16.463Z,760.00
2023-05-16T01:09:15.535Z,765.00
2023-05-16T01:10:15.626Z,758.00
2023-05-16T01:11:15.667Z,767.00
2023-05-16T01:12:15.722Z,759.00
2023-05-16T01:13:16.793Z,759.00
2023-05-16T01:14:16.840Z,769.00
2023-05-16T01:15:16.923Z,763.00
2023-05-16T01:16:17.030Z,774.00
2023-05-16T01:17:17.036Z,762.00
2023-05-16T01:18:16.143Z,763.00
2023-05-16T01:19:16.273Z,757.00
2023-05-16T01:20:17.196Z,766.00
2023-05-16T01:21:16.261Z,762.00
2023-05-16T01:22:17.322Z,760.00
2023-05-16T01:23:17.355Z,754.00
2023-05-16T01:24:16.419Z,761.00
2023-05-16T01:25:17.463Z,749.00
2023-05-16T01:26:17.547Z,759.00
2023-05-16T01:27:17.575Z,759.00
2023-05-16T01:28:16.653Z,738.00
2023-05-16T01:29:16.689Z,757.00
2023-05-16T01:30:17.745Z,768.00
2023-05-16T01:31:17.843Z,757.00
2023-05-16T01:32:17.854Z,740.00
2023-05-16T01:33:17.908Z,756.00
2023-05-16T01:34:17.977Z,747.00
2023-05-16T01:35:18.007Z,746.00
2023-05-16T01:36:18.081Z,750.00
2023-05-16T01:37:18.118Z,745.00
2023-05-16T01:38:18.170Z,751.00
2023-05-16T01:39:18.227Z,752.00
2023-05-16T01:40:17.265Z,748.00
2023-05-16T01:41:18.335Z,753.00
2023-05-16T01:42:18.407Z,753.00
2023-05-16T01:43:17.434Z,756.00
2023-05-16T01:44:18.478Z,746.00
2023-05-16T01:45:18.542Z,747.00
2023-05-16T01:46:17.630Z,761.00
2023-05-16T01:47:17.725Z,744.00
2023-05-16T01:48:17.737Z,754.00
2023-05-16T01:49:17.756Z,762.00
2023-05-16T01:50:17.806Z,742.00
2023-05-16T01:51:18.881Z,735.00
2023-05-16T01:52:17.917Z,746.00
2023-05-16T01:53:18.965Z,744.00
2023-05-16T01:54:18.016Z,736.00
2023-05-16T01:55:19.076Z,753.00
2023-05-16T01:56:19.149Z,737.00
2023-05-16T01:57:19.201Z,746.00
2023-05-16T01:58:19.277Z,752.00
2023-05-16T01:59:19.317Z,726.00
2023-05-16T02:00:19.386Z,751.00
2023-05-16T02:01:19.491Z,726.00
2023-05-16T02:02:19.614Z,746.00
2023-05-16T02:03:19.574Z,734.00
2023-05-16T02:04:18.827Z,747.00
2023-05-16T02:05:19.668Z,738.00
2023-05-16T02:06:19.756Z,730.00
2023-05-16T02:07:18.784Z,736.00
2023-05-16T02:08:19.859Z,743.00
2023-05-16T02:09:18.915Z,751.00
2023-05-16T02:10:19.967Z,735.00
2023-05-16T02:11:20.032Z,740.00
2023-05-16T02:12:19.073Z,730.00
2023-05-16T02:13:20.117Z,735.00
2023-05-16T02:14:19.221Z,731.00
2023-05-16T02:15:20.241Z,742.00
2023-05-16T02:16:19.338Z,737.00
2023-05-16T02:17:20.382Z,737.00
2023-05-16T02:18:20.420Z,742.00
2023-05-16T02:19:19.600Z,736.00
2023-05-16T02:20:19.534Z,741.00
2023-05-16T02:21:20.615Z,729.00
2023-05-16T02:22:20.655Z,716.00
2023-05-16T02:23:19.726Z,727.00
2023-05-16T02:24:19.781Z,746.00
2023-05-16T02:25:20.881Z,735.00
2023-05-16T02:26:20.890Z,743.00
2023-05-16T02:27:20.937Z,730.00
2023-05-16T02:28:19.998Z,738.00
2023-05-16T02:29:21.093Z,725.00
2023-05-16T02:30:21.287Z,729.00
2023-05-16T02:31:20.258Z,722.00
2023-05-16T02:32:21.275Z,717.00
2023-05-16T02:33:20.306Z,722.00
2023-05-16T02:34:21.361Z,732.00
2023-05-16T02:35:20.413Z,718.00
2023-05-16T02:36:21.541Z,715.00
2023-05-16T02:37:20.532Z,720.00
2023-05-16T02:38:21.590Z,733.00
2023-05-16T02:39:20.649Z,714.00
2023-05-16T02:40:21.706Z,708.00
2023-05-16T02:41:21.804Z,726.00
2023-05-16T02:42:21.846Z,718.00
2023-05-16T02:43:20.918Z,719.00
2023-05-16T02:44:21.940Z,715.00
2023-05-16T02:45:21.026Z,713.00
2023-05-16T02:46:21.174Z,719.00
2023-05-16T02:47:22.136Z,711.00
2023-05-16T02:48:22.166Z,715.00
2023-05-16T02:49:22.248Z,718.00
2023-05-16T02:50:21.312Z,726.00
2023-05-16T02:51:22.514Z,718.00
2023-05-16T02:52:21.406Z,726.00
2023-05-16T02:53:22.558Z,713.00
2023-05-16T02:54:22.534Z,723.00
2023-05-16T02:55:22.560Z,696.00
2023-05-16T02:56:22.684Z,693.00
2023-05-16T02:57:21.712Z,712.00
2023-05-16T02:58:22.776Z,715.00
2023-05-16T02:59:22.956Z,708.00
2023-05-16T03:00:23.227Z,716.00
2023-05-16T03:01:23.163Z,719.00
2023-05-16T03:02:22.159Z,712.00
2023-05-16T03:03:23.242Z,694.00
2023-05-16T03:04:23.130Z,719.00
2023-05-16T03:05:22.470Z,705.00
2023-05-16T03:06:22.299Z,698.00
2023-05-16T03:07:22.320Z,702.00
2023-05-16T03:08:23.414Z,714.00
2023-05-16T03:09:23.455Z,692.00
2023-05-16T03:10:22.507Z,702.00
2023-05-16T03:11:22.572Z,715.00
2023-05-16T03:12:22.688Z,706.00
2023-05-16T03:13:22.672Z,707.00
2023-05-16T03:14:23.731Z,701.00
2023-05-16T03:15:23.798Z,703.00
2023-05-16T03:16:24.023Z,705.00
2023-05-16T03:17:22.917Z,707.00
2023-05-16T03:18:23.167Z,712.00
2023-05-16T03:19:24.039Z,702.00
2023-05-16T03:20:23.069Z,698.00
2023-05-16T03:21:23.147Z,720.00
2023-05-16T03:22:24.170Z,708.00
2023-05-16T03:23:24.242Z,693.00
2023-05-16T03:24:23.389Z,687.00
2023-05-16T03:25:23.365Z,694.00
2023-05-16T03:26:24.476Z,699.00
2023-05-16T03:27:24.519Z,696.00
2023-05-16T03:28:23.555Z,696.00
2023-05-16T03:29:24.624Z,697.00
2023-05-16T03:30:23.683Z,688.00
2023-05-16T03:31:24.823Z,702.00
2023-05-16T03:32:23.854Z,699.00
2023-05-16T03:33:24.882Z,696.00
2023-05-16T03:34:23.922Z,699.00
2023-05-16T03:35:25.226Z,690.00
2023-05-16T03:36:24.028Z,688.00
2023-05-16T03:37:24.067Z,690.00
2023-05-16T03:38:24.073Z,684.00
2023-05-16T03:39:24.132Z,683.00
2023-05-16T03:40:24.174Z,699.00
2023-05-16T03:41:24.233Z,696.00
2023-05-16T03:42:25.256Z,699.00
2023-05-16T03:43:25.256Z,691.00
2023-05-16T03:44:25.284Z,686.00
2023-05-16T03:45:25.421Z,686.00
2023-05-16T03:46:24.409Z,685.00
2023-05-16T03:47:24.431Z,683.00
2023-05-16T03:48:24.524Z,686.00
2023-05-16T03:49:25.458Z,683.00
2023-05-16T03:50:25.535Z,690.00
2023-05-16T03:51:25.553Z,688.00
2023-05-16T03:52:25.585Z,680.00
2023-05-16T03:53:24.632Z,679.00
2023-05-16T03:54:25.755Z,669.00
2023-05-16T03:55:26.002Z,676.00
2023-05-16T03:56:25.827Z,677.00
2023-05-16T03:57:25.885Z,684.00
2023-05-16T03:58:24.981Z,674.00
2023-05-16T03:59:26.008Z,681.00
2023-05-16T04:00:25.097Z,673.00
2023-05-16T04:01:26.138Z,681.00
2023-05-16T04:02:25.363Z,683.00
2023-05-16T04:03:25.281Z,674.00
2023-05-16T04:04:26.369Z,689.00
2023-05-16T04:05:25.790Z,677.00
2023-05-16T04:06:25.467Z,667.00
2023-05-16T04:07:26.485Z,677.00
2023-05-16T04:08:26.551Z,669.00
2023-05-16T04:09:26.586Z,665.00
2023-05-16T04:10:26.644Z,671.00
2023-05-16T04:11:25.722Z,676.00
2023-05-16T04:12:26.796Z,685.00
2023-05-16T04:13:25.891Z,669.00
2023-05-16T04:14:25.866Z,679.00
2023-05-16T04:15:27.155Z,664.00
2023-05-16T04:16:27.040Z,668.00
2023-05-16T04:17:26.108Z,679.00
2023-05-16T04:18:27.131Z,670.00
2023-05-16T04:19:26.237Z,671.00
2023-05-16T04:20:27.278Z,677.00
2023-05-16T04:21:26.352Z,672.00
2023-05-16T04:22:26.385Z,668.00
2023-05-16T04:23:26.450Z,665.00
2023-05-16T04:24:27.500Z,678.00
2023-05-16T04:25:26.668Z,669.00
2023-05-16T04:26:27.619Z,665.00
2023-05-16T04:27:26.691Z,675.00
2023-05-16T04:28:26.758Z,670.00
2023-05-16T04:29:27.829Z,671.00
2023-05-16T04:30:27.905Z,665.00
2023-05-16T04:31:27.997Z,672.00
2023-05-16T04:32:28.060Z,667.00
2023-05-16T04:33:28.090Z,666.00
2023-05-16T04:34:28.160Z,676.00
2023-05-16T04:35:28.543Z,679.00
2023-05-16T04:36:28.284Z,669.00
2023-05-16T04:37:28.323Z,662.00
2023-05-16T04:38:27.418Z,661.00
2023-05-16T04:39:28.460Z,666.00
2023-05-16T04:40:28.517Z,664.00
2023-05-16T04:41:27.584Z,660.00
2023-05-16T04:42:28.640Z,664.00
2023-05-16T04:43:27.707Z,663.00
2023-05-16T04:44:28.729Z,665.00
2023-05-16T04:45:28.920Z,661.00
2023-05-16T04:46:27.798Z,662.00
2023-05-16T04:47:28.839Z,664.00
2023-05-16T04:48:27.842Z,665.00
2023-05-16T04:49:28.871Z,658.00
2023-05-16T04:50:28.924Z,662.00
2023-05-16T04:51:28.942Z,663.00
2023-05-16T04:52:28.999Z,663.00
2023-05-16T04:53:27.994Z,658.00
2023-05-16T04:54:28.014Z,661.00
2023-05-16T04:55:29.409Z,655.00
2023-05-16T04:56:29.003Z,659.00
2023-05-16T04:57:29.239Z,664.00
2023-05-16T04:58:29.029Z,658.00
2023-05-16T04:59:28.035Z,662.00
2023-05-16T05:00:29.406Z,663.00
2023-05-16T05:01:28.107Z,660.00
2023-05-16T05:02:29.118Z,658.00
2023-05-16T05:03:29.104Z,659.00
2023-05-16T05:04:29.389Z,655.00
2023-05-16T05:05:28.496Z,657.00
2023-05-16T05:06:28.252Z,661.00
2023-05-16T05:07:28.251Z,664.00
2023-05-16T05:08:28.312Z,660.00
2023-05-16T05:09:28.368Z,660.00
2023-05-16T05:10:29.551Z,662.00
2023-05-16T05:11:29.570Z,662.00
2023-05-16T05:12:28.471Z,659.00
2023-05-16T05:13:29.459Z,658.00
2023-05-16T05:14:29.528Z,657.00
2023-05-16T05:15:29.774Z,655.00
2023-05-16T05:16:29.570Z,657.00
2023-05-16T05:17:28.655Z,658.00
2023-05-16T05:18:29.717Z,657.00
2023-05-16T05:19:28.732Z,656.00
2023-05-16T05:20:28.744Z,658.00
2023-05-16T05:21:28.781Z,656.00
2023-05-16T05:22:28.824Z,659.00
2023-05-16T05:23:29.854Z,660.00
2023-05-16T05:24:28.923Z,656.00
2023-05-16T05:25:29.149Z,657.00
2023-05-16T05:26:30.009Z,655.00
2023-05-16T05:27:29.068Z,654.00
2023-05-16T05:28:29.105Z,655.00
2023-05-16T05:29:29.123Z,658.00
2023-05-16T05:30:30.171Z,657.00
2023-05-16T05:31:29.224Z,661.00
2023-05-16T05:32:30.247Z,650.00
2023-05-16T05:33:29.244Z,650.00
2023-05-16T05:34:30.256Z,651.00
2023-05-16T05:35:30.511Z,654.00
2023-05-16T05:36:29.339Z,655.00
2023-05-16T05:37:30.418Z,657.00
2023-05-16T05:38:30.460Z,653.00
2023-05-16T05:39:30.564Z,657.00
2023-05-16T05:40:30.566Z,658.00
2023-05-16T05:41:30.615Z,655.00
2023-05-16T05:42:30.713Z,658.00
2023-05-16T05:43:30.732Z,657.00
2023-05-16T05:44:30.803Z,660.00
2023-05-16T05:45:30.999Z,656.00
2023-05-16T05:46:30.943Z,656.00
2023-05-16T05:47:31.003Z,659.00
2023-05-16T05:48:31.105Z,657.00
2023-05-16T05:49:31.065Z,664.00
2023-05-16T05:50:30.218Z,660.00
2023-05-16T05:51:30.172Z,672.00
2023-05-16T05:52:31.497Z,664.00
2023-05-16T05:53:30.373Z,673.00
2023-05-16T05:54:30.339Z,675.00
2023-05-16T05:55:31.420Z,695.00
2023-05-16T05:56:30.481Z,692.00
2023-05-16T05:57:30.475Z,722.00
2023-05-16T05:58:31.469Z,761.00
2023-05-16T05:59:30.522Z,758.00
2023-05-16T06:00:31.560Z,756.00
2023-05-16T06:01:30.898Z,817.00
2023-05-16T06:02:32.154Z,856.00
2023-05-16T06:03:30.683Z,844.00
2023-05-16T06:04:30.639Z,880.00
2023-05-16T06:05:31.833Z,887.00
2023-05-16T06:06:30.656Z,905.00
2023-05-16T06:07:31.645Z,920.00
2023-05-16T06:08:30.633Z,934.00
2023-05-16T06:09:30.711Z,939.00
2023-05-16T06:10:31.710Z,951.00
2023-05-16T06:11:31.906Z,968.00
2023-05-16T06:12:31.843Z,980.00
2023-05-16T06:13:31.879Z,1012.00
2023-05-16T06:14:30.978Z,1009.00
2023-05-16T06:15:31.022Z,1024.00
2023-05-16T06:16:32.063Z,1052.00
2023-05-16T06:17:31.139Z,1058.00
2023-05-16T06:18:32.203Z,1080.00
2023-05-16T06:19:32.237Z,1092.00
2023-05-16T06:20:32.237Z,1101.00
2023-05-16T06:21:32.297Z,1110.00
2023-05-16T06:22:31.341Z,1130.00
2023-05-16T06:23:32.376Z,1147.00
2023-05-16T06:24:32.392Z,1156.00
2023-05-16T06:25:32.627Z,1174.00
2023-05-16T06:26:32.501Z,1186.00
2023-05-16T06:27:31.501Z,1208.00
2023-05-16T06:28:31.515Z,1223.00
2023-05-16T06:29:32.485Z,1234.00
2023-05-16T06:30:32.506Z,1272.00
2023-05-16T06:31:31.601Z,1257.00
2023-05-16T06:32:32.567Z,1273.00
2023-05-16T06:33:31.572Z,1284.00
2023-05-16T06:34:32.581Z,1316.00
2023-05-16T06:35:32.590Z,1317.00
2023-05-16T06:36:32.591Z,1318.00
2023-05-16T06:37:32.610Z,1326.00
2023-05-16T06:38:32.628Z,1347.00
2023-05-16T06:39:31.665Z,1363.00
2023-05-16T06:40:32.710Z,1377.00
2023-05-16T06:41:32.928Z,1396.00
2023-05-16T06:42:32.755Z,1404.00
2023-05-16T06:43:32.773Z,1413.00
2023-05-16T06:44:32.747Z,1424.00
2023-05-16T06:45:31.772Z,1455.00
2023-05-16T06:46:32.913Z,1491.00
2023-05-16T06:47:32.821Z,1467.00
2023-05-16T06:48:32.884Z,1488.00
2023-05-16T06:49:31.822Z,1543.00
2023-05-16T06:50:32.872Z,1527.00
2023-05-16T06:51:32.187Z,1552.00
2023-05-16T06:52:33.248Z,1555.00
2023-05-16T06:53:32.843Z,1530.00
2023-05-16T06:54:33.086Z,1555.00
2023-05-16T06:55:32.828Z,1507.00
2023-05-16T06:56:32.850Z,1464.00
2023-05-16T06:57:32.868Z,1496.00
2023-05-16T06:58:32.990Z,1493.00
2023-05-16T06:59:32.928Z,1510.00
2023-05-16T07:00:31.894Z,1517.00
2023-05-16T07:01:32.974Z,1422.00
2023-05-16T07:02:33.139Z,1432.00
2023-05-16T07:03:33.104Z,1457.00
2023-05-16T07:04:33.034Z,1461.00
2023-05-16T07:05:32.100Z,1482.00
2023-05-16T07:06:32.103Z,1408.00
2023-05-16T07:07:33.189Z,1322.00
2023-05-16T07:08:33.240Z,1267.00
2023-05-16T07:09:33.281Z,1293.00
2023-05-16T07:10:33.422Z,1325.00
2023-05-16T07:11:33.409Z,1341.00
2023-05-16T07:12:32.496Z,1286.00
2023-05-16T07:13:35.847Z,1294.00
2023-05-16T07:14:33.535Z,1283.00
2023-05-16T07:15:33.574Z,1299.00
2023-05-16T07:16:33.572Z,1214.00
2023-05-16T07:17:33.636Z,1174.00
2023-05-16T07:18:32.517Z,1129.00
2023-05-16T07:19:32.490Z,1152.00
2023-05-16T07:20:32.501Z,1095.00
2023-05-16T07:21:33.496Z,1074.00
2023-05-16T07:22:33.471Z,1065.00
2023-05-16T07:23:33.458Z,1020.00
2023-05-16T07:24:33.439Z,997.00
2023-05-16T07:25:32.443Z,969.00
2023-05-16T07:26:33.442Z,949.00
2023-05-16T07:27:33.444Z,912.00
2023-05-16T07:28:33.424Z,898.00
2023-05-16T07:29:33.414Z,883.00
2023-05-16T07:30:33.400Z,854.00
2023-05-16T07:31:33.497Z,870.00
2023-05-16T07:32:33.460Z,893.00
2023-05-16T07:33:33.419Z,874.00
2023-05-16T07:34:33.383Z,884.00
2023-05-16T07:35:32.389Z,891.00
2023-05-16T07:36:32.392Z,825.00
2023-05-16T07:37:33.355Z,835.00
2023-05-16T07:38:33.362Z,841.00
2023-05-16T07:39:33.351Z,818.00
2023-05-16T07:40:32.339Z,801.00
2023-05-16T07:41:32.343Z,798.00
2023-05-16T07:42:33.327Z,773.00
2023-05-16T07:43:32.312Z,770.00
2023-05-16T07:44:33.325Z,752.00
2023-05-16T07:45:33.338Z,735.00
2023-05-16T07:46:33.362Z,758.00
2023-05-16T07:47:33.435Z,819.00
2023-05-16T07:48:32.786Z,880.00
2023-05-16T07:49:33.334Z,883.00
2023-05-16T07:50:32.396Z,896.00
2023-05-16T07:51:32.276Z,912.00
2023-05-16T07:52:32.263Z,928.00
2023-05-16T07:53:33.554Z,961.00
2023-05-16T07:54:32.282Z,960.00
2023-05-16T07:55:32.267Z,960.00
2023-05-16T07:56:33.237Z,942.00
2023-05-16T07:57:33.216Z,925.00
2023-05-16T07:58:33.248Z,916.00
2023-05-16T07:59:33.329Z,906.00
2023-05-16T08:00:32.217Z,906.00
2023-05-16T08:01:33.210Z,863.00
2023-05-16T08:02:33.261Z,838.00
2023-05-16T08:03:33.367Z,828.00
2023-05-16T08:04:32.176Z,817.00
2023-05-16T08:05:33.230Z,784.00
2023-05-16T08:06:32.166Z,785.00
2023-05-16T08:07:33.191Z,785.00
2023-05-16T08:08:33.165Z,779.00
2023-05-16T08:09:33.161Z,785.00
2023-05-16T08:10:33.143Z,763.00
2023-05-16T08:11:32.142Z,719.00
2023-05-16T08:12:33.139Z,717.00
2023-05-16T08:13:33.127Z,747.00
2023-05-16T08:14:32.148Z,764.00
2023-05-16T08:15:36.143Z,746.00
2023-05-16T08:16:32.158Z,746.00
2023-05-16T08:17:33.199Z,718.00
2023-05-16T08:18:33.180Z,724.00
2023-05-16T08:19:33.191Z,710.00
2023-05-16T08:20:32.070Z,688.00
2023-05-16T08:21:32.081Z,682.00
2023-05-16T08:22:33.096Z,682.00
2023-05-16T08:23:33.151Z,673.00
2023-05-16T08:24:33.170Z,681.00
2023-05-16T08:25:33.048Z,671.00
2023-05-16T08:26:33.056Z,674.00
2023-05-16T08:27:32.026Z,661.00
2023-05-16T08:28:33.044Z,659.00
2023-05-16T08:29:32.059Z,650.00
2023-05-16T08:30:33.030Z,647.00
2023-05-16T08:31:33.170Z,643.00
2023-05-16T08:32:33.083Z,633.00
2023-05-16T08:33:32.028Z,646.00
2023-05-16T08:34:31.990Z,639.00
2023-05-16T08:35:32.033Z,638.00
2023-05-16T08:36:32.975Z,638.00
2023-05-16T08:37:31.986Z,635.00
2023-05-16T08:38:33.028Z,631.00
2023-05-16T08:39:31.970Z,623.00
2023-05-16T08:40:31.966Z,615.00
2023-05-16T08:41:32.947Z,643.00
2023-05-16T08:42:31.923Z,658.00
2023-05-16T08:43:34.579Z,688.00
2023-05-16T08:44:32.222Z,711.00
2023-05-16T08:45:33.457Z,759.00
2023-05-16T08:46:33.172Z,800.00
2023-05-16T08:47:33.482Z,804.00
2023-05-16T08:48:32.337Z,826.00
2023-05-16T08:49:33.282Z,847.00
2023-05-16T08:50:33.345Z,862.00
2023-05-16T08:51:33.396Z,883.00
2023-05-16T08:52:32.402Z,892.00
2023-05-16T08:53:33.614Z,923.00
2023-05-16T08:54:33.524Z,942.00
2023-05-16T08:55:33.611Z,943.00
2023-05-16T08:56:32.666Z,968.00
2023-05-16T08:57:32.738Z,957.00
2023-05-16T08:58:33.089Z,970.00
2023-05-16T08:59:33.653Z,965.00
2023-05-16T09:00:40.159Z,957.00
2023-05-16T09:01:33.706Z,959.00
2023-05-16T09:02:33.704Z,964.00
2023-05-16T09:03:32.678Z,969.00
2023-05-16T09:04:33.667Z,978.00
2023-05-16T09:05:32.637Z,1004.00
2023-05-16T09:06:33.632Z,987.00
2023-05-16T09:07:33.729Z,990.00
2023-05-16T09:08:33.623Z,994.00
2023-05-16T09:09:32.618Z,994.00
2023-05-16T09:10:33.597Z,999.00
2023-05-16T09:11:33.979Z,993.00
2023-05-16T09:12:33.633Z,999.00
2023-05-16T09:13:32.688Z,986.00
2023-05-16T09:14:32.768Z,1003.00
2023-05-16T09:15:32.814Z,996.00
2023-05-16T09:16:33.881Z,989.00
2023-05-16T09:17:39.782Z,1013.00
2023-05-16T09:18:34.115Z,1013.00
2023-05-16T09:19:34.044Z,1015.00
2023-05-16T09:20:32.911Z,1015.00
2023-05-16T09:21:33.906Z,1016.00
2023-05-16T09:22:32.898Z,1017.00
2023-05-16T09:23:36.451Z,1003.00
2023-05-16T09:24:33.874Z,1005.00
2023-05-16T09:25:34.210Z,1005.00
2023-05-16T09:26:33.868Z,1007.00
2023-05-16T09:27:32.857Z,1005.00
2023-05-16T09:28:32.844Z,1006.00
2023-05-16T09:29:33.466Z,1009.00
2023-05-16T09:30:34.424Z,1006.00
2023-05-16T09:31:33.879Z,1009.00
2023-05-16T09:32:32.859Z,1007.00
2023-05-16T09:33:32.869Z,1007.00
2023-05-16T09:34:33.805Z,1002.00
2023-05-16T09:36:32.802Z,1009.00
2023-05-16T09:37:33.793Z,1009.00
2023-05-16T09:38:33.804Z,994.00
2023-05-16T09:39:33.845Z,995.00
2023-05-16T09:40:33.766Z,989.00
2023-05-16T09:41:32.774Z,996.00
2023-05-16T09:42:32.759Z,997.00
2023-05-16T09:43:33.267Z,1002.00
2023-05-16T09:44:33.561Z,986.00
2023-05-16T09:45:33.748Z,991.00
2023-05-16T09:46:32.774Z,1000.00
2023-05-16T09:47:33.801Z,1006.00
2023-05-16T09:48:33.099Z,1006.00
2023-05-16T09:49:32.706Z,992.00
2023-05-16T09:50:33.736Z,973.00
2023-05-16T09:51:32.708Z,929.00
2023-05-16T09:52:33.688Z,933.00
2023-05-16T09:53:33.084Z,938.00
2023-05-16T09:54:32.673Z,946.00
2023-05-16T09:55:33.757Z,949.00
2023-05-16T09:56:33.655Z,936.00
2023-05-16T09:57:32.657Z,955.00
2023-05-16T09:58:33.638Z,955.00
2023-05-16T09:59:32.759Z,957.00
2023-05-16T10:00:33.750Z,977.00
2023-05-16T10:01:33.814Z,984.00
2023-05-16T10:02:33.875Z,984.00
2023-05-16T10:03:32.944Z,988.00
2023-05-16T10:04:33.976Z,984.00
2023-05-16T10:05:33.036Z,993.00
2023-05-16T10:06:34.084Z,989.00
2023-05-16T10:07:34.149Z,982.00
2023-05-16T10:08:33.214Z,986.00
2023-05-16T10:09:34.248Z,989.00
2023-05-16T10:10:34.335Z,984.00
2023-05-16T10:11:33.477Z,992.00
2023-05-16T10:12:34.445Z,989.00
2023-05-16T10:13:34.509Z,987.00
2023-05-16T10:14:33.550Z,989.00
2023-05-16T10:15:33.620Z,988.00
2023-05-16T10:16:33.684Z,988.00
2023-05-16T10:17:34.742Z,983.00
2023-05-16T10:18:34.783Z,978.00
2023-05-16T10:19:34.755Z,988.00
2023-05-16T10:20:34.807Z,979.00
2023-05-16T10:21:33.876Z,982.00
2023-05-16T10:22:34.879Z,986.00
2023-05-16T10:23:34.924Z,980.00
2023-05-16T10:24:34.936Z,975.00
2023-05-16T10:25:35.006Z,981.00
2023-05-16T10:26:34.005Z,984.00
2023-05-16T10:27:35.099Z,971.00
2023-05-16T10:28:35.063Z,975.00
2023-05-16T10:29:46.588Z,972.00
2023-05-16T10:30:35.095Z,973.00
2023-05-16T10:31:35.166Z,977.00
2023-05-16T10:32:35.096Z,979.00
2023-05-16T10:33:35.050Z,985.00
2023-05-16T10:34:35.032Z,976.00
2023-05-16T10:35:35.024Z,987.00
2023-05-16T10:36:35.022Z,965.00
2023-05-16T10:37:35.037Z,976.00
2023-05-16T10:38:35.033Z,967.00
2023-05-16T10:39:34.996Z,970.00
2023-05-16T10:40:35.009Z,964.00
2023-05-16T10:41:33.988Z,976.00
2023-05-16T10:42:34.989Z,975.00
2023-05-16T10:43:35.150Z,961.00
2023-05-16T10:44:35.164Z,955.00
2023-05-16T10:45:33.986Z,965.00
2023-05-16T10:46:35.069Z,959.00
2023-05-16T10:47:35.022Z,953.00
2023-05-16T10:48:33.927Z,953.00
2023-05-16T10:49:35.118Z,961.00
2023-05-16T10:50:34.924Z,967.00
2023-05-16T10:51:33.914Z,960.00
2023-05-16T10:52:35.002Z,955.00
2023-05-16T10:53:34.909Z,948.00
2023-05-16T10:54:34.922Z,954.00
2023-05-16T10:55:34.877Z,958.00
2023-05-16T10:56:33.885Z,966.00
2023-05-16T10:57:33.860Z,953.00
2023-05-16T10:58:33.873Z,950.00
2023-05-16T10:59:35.023Z,955.00
2023-05-16T11:00:34.874Z,945.00
2023-05-16T11:01:34.932Z,952.00
2023-05-16T11:02:35.003Z,944.00
2023-05-16T11:03:34.031Z,945.00
2023-05-16T11:04:33.923Z,949.00
2023-05-16T11:05:33.930Z,955.00
2023-05-16T11:06:34.958Z,931.00
2023-05-16T11:07:34.974Z,940.00
2023-05-16T11:08:33.981Z,928.00
2023-05-16T11:09:35.028Z,947.00
2023-05-16T11:10:35.101Z,944.00
2023-05-16T11:11:35.046Z,934.00
2023-05-16T11:12:34.065Z,932.00
2023-05-16T11:13:35.060Z,936.00
2023-05-16T11:14:35.139Z,931.00
2023-05-16T11:15:34.113Z,934.00
2023-05-16T11:16:35.156Z,940.00
2023-05-16T11:17:34.100Z,935.00
2023-05-16T11:18:35.163Z,928.00
2023-05-16T11:19:34.092Z,924.00
2023-05-16T11:20:35.091Z,932.00
2023-05-16T11:21:35.081Z,932.00
2023-05-16T11:22:35.158Z,929.00
2023-05-16T11:23:34.087Z,928.00
2023-05-16T11:24:34.105Z,930.00
2023-05-16T11:25:35.116Z,928.00
2023-05-16T11:26:35.127Z,923.00
2023-05-16T11:27:34.134Z,928.00
2023-05-16T11:28:35.102Z,932.00
2023-05-16T11:29:35.108Z,922.00
2023-05-16T11:30:34.103Z,913.00
2023-05-16T11:31:35.173Z,925.00
2023-05-16T11:32:34.160Z,929.00
2023-05-16T11:33:34.120Z,918.00
2023-05-16T11:34:35.094Z,927.00
2023-05-16T11:35:35.094Z,930.00
2023-05-16T11:36:34.090Z,921.00
2023-05-16T11:37:34.096Z,923.00
2023-05-16T11:38:35.141Z,912.00
2023-05-16T11:39:34.690Z,923.00
2023-05-16T11:40:35.144Z,912.00
2023-05-16T11:41:35.121Z,904.00
2023-05-16T11:42:35.146Z,913.00
2023-05-16T11:43:35.167Z,915.00
2023-05-16T11:44:34.181Z,927.00
2023-05-16T11:45:35.202Z,907.00
2023-05-16T11:46:34.221Z,920.00
2023-05-16T11:47:35.298Z,914.00
2023-05-16T11:48:36.506Z,914.00
2023-05-16T11:49:35.404Z,912.00
2023-05-16T11:50:34.395Z,907.00
2023-05-16T11:51:35.426Z,917.00
2023-05-16T11:52:35.413Z,915.00
2023-05-16T11:53:35.406Z,895.00
2023-05-16T11:54:34.418Z,911.00
2023-05-16T11:56:34.396Z,916.00
2023-05-16T11:57:34.391Z,905.00
2023-05-16T11:58:35.380Z,903.00
2023-05-16T11:59:35.365Z,907.00
2023-05-16T12:00:34.418Z,905.00
2023-05-16T12:01:34.362Z,904.00
2023-05-16T12:02:34.418Z,877.00
2023-05-16T12:03:35.924Z,895.00
2023-05-16T12:04:34.559Z,903.00
2023-05-16T12:05:35.417Z,891.00
2023-05-16T12:06:35.328Z,898.00
2023-05-16T12:07:35.315Z,878.00
2023-05-16T12:08:35.332Z,876.00
2023-05-16T12:09:34.366Z,870.00
2023-05-16T12:10:35.364Z,864.00
2023-05-16T12:11:35.279Z,879.00
2023-05-16T12:12:34.286Z,860.00
2023-05-16T12:13:34.269Z,872.00
2023-05-16T12:14:35.276Z,859.00
2023-05-16T12:15:35.276Z,853.00
2023-05-16T12:16:35.300Z,863.00
2023-05-16T12:17:34.279Z,872.00
2023-05-16T12:18:34.327Z,865.00
2023-05-16T12:19:35.319Z,849.00
2023-05-16T12:20:35.220Z,857.00
2023-05-16T12:21:35.224Z,849.00
2023-05-16T12:22:35.222Z,843.00
2023-05-16T12:23:34.202Z,852.00
2023-05-16T12:24:34.214Z,858.00
2023-05-16T12:25:35.184Z,861.00
2023-05-16T12:26:34.175Z,877.00
2023-05-16T12:27:34.188Z,862.00